Time;durP1;ratioP1;P1;durP2;ratioP2;P2;SDS_P1;SDS_P2;PMS_P1;PMS_P2;Temp;Humidity;BMP_temperature;BMP_pressure;BME280_temperature;BME280_humidity;BME280_pressure;Samples;Min_cycle;Max_cycle;Signal;HPM_P1;HPM_P2
2022/11/10 09:01:07;;;;;;;4.50;0.93;;;12.20;99.90;;;;;;4916606;23;20237;-71
2022/11/10 09:03:34;;;;;;;9.97;1.70;;;12.20;99.90;;;;;;4914649;29;20210;-73
2022/11/10 09:06:00;;;;;;;2.77;0.90;;;12.30;99.90;;;;;;4911708;29;20588;-71
2022/11/10 09:08:27;;;;;;;5.00;0.80;;;12.40;99.90;;;;;;4897286;29;20214;-72
2022/11/10 09:10:54;;;;;;;6.80;1.10;;;12.40;99.90;;;;;;4898284;29;20215;-72
2022/11/10 09:13:21;;;;;;;5.17;0.90;;;12.50;99.90;;;;;;4898107;29;20214;-73
2022/11/10 09:15:48;;;;;;;6.20;1.00;;;12.60;99.90;;;;;;4898058;29;20218;-74
2022/11/10 09:18:16;;;;;;;5.17;1.00;;;12.60;99.90;;;;;;4897867;29;20239;-70
2022/11/10 09:20:43;;;;;;;4.67;1.07;;;12.60;99.90;;;;;;4898511;29;20210;-73
2022/11/10 09:23:12;;;;;;;4.07;1.13;;;12.60;99.90;;;;;;4897584;29;20680;-73
2022/11/10 09:25:39;;;;;;;5.30;1.17;;;12.60;99.90;;;;;;4897564;29;20206;-73
2022/11/10 09:28:06;;;;;;;2.40;0.80;;;12.60;99.90;;;;;;4897310;29;20226;-71
2022/11/10 09:30:33;;;;;;;4.57;0.70;;;12.70;99.90;;;;;;4897830;29;20210;-70
2022/11/10 09:33:00;;;;;;;6.23;0.93;;;12.70;99.90;;;;;;4899061;29;20212;-70
2022/11/10 09:35:29;;;;;;;3.07;0.70;;;12.70;99.90;;;;;;4898607;29;20214;-69
2022/11/10 09:37:55;;;;;;;4.13;0.90;;;12.80;99.90;;;;;;4898721;29;20243;-68
2022/11/10 09:40:25;;;;;;;5.13;1.00;;;12.80;99.90;;;;;;4899056;29;20210;-68
2022/11/10 09:42:56;;;;;;;7.43;0.70;;;12.90;99.90;;;;;;4898960;29;20210;-68
2022/11/10 09:45:26;;;;;;;7.53;1.13;;;13.00;99.90;;;;;;4898628;29;20222;-68
2022/11/10 09:47:59;;;;;;;3.40;0.60;;;13.00;99.90;;;;;;4898450;29;20745;-68
2022/11/10 09:50:36;;;;;;;2.83;0.60;;;13.00;99.90;;;;;;4898630;29;20676;-68
2022/11/10 09:53:05;;;;;;;2.10;0.57;;;13.00;99.90;;;;;;4898879;29;20214;-70
2022/11/10 09:55:37;;;;;;;3.83;0.73;;;13.10;99.90;;;;;;4898604;29;20210;-69
2022/11/10 09:58:04;;;;;;;4.87;0.80;;;13.20;99.90;;;;;;4898825;29;20230;-69
2022/11/10 10:00:34;;;;;;;4.20;1.13;;;13.10;99.90;;;;;;4898686;29;20236;-69
2022/11/10 10:03:02;;;;;;;6.30;0.70;;;13.10;99.90;;;;;;4898538;29;20215;-68
2022/11/10 10:05:39;;;;;;;5.40;0.63;;;13.20;99.90;;;;;;4898571;29;20232;-68
2022/11/10 10:08:08;;;;;;;3.23;0.83;;;13.20;99.90;;;;;;4898487;29;20590;-68
2022/11/10 10:10:41;;;;;;;6.87;0.93;;;13.20;99.90;;;;;;4898676;29;20217;-68
2022/11/10 10:13:25;;;;;;;5.63;0.90;;;13.30;99.90;;;;;;4898512;29;20217;-68
2022/11/10 10:16:06;;;;;;;5.37;0.60;;;13.30;99.90;;;;;;4897877;29;20216;-68
2022/11/10 10:18:45;;;;;;;4.67;1.40;;;13.40;99.90;;;;;;4898010;29;20736;-68
2022/11/10 10:21:30;;;;;;;2.57;0.70;;;13.40;99.90;;;;;;4898317;29;20210;-68
2022/11/10 10:24:01;;;;;;;8.40;1.13;;;13.50;99.90;;;;;;4897806;29;20238;-68
2022/11/10 10:26:30;;;;;;;3.53;0.43;;;13.60;99.90;;;;;;4898351;29;20226;-68
2022/11/10 10:29:02;;;;;;;4.33;0.70;;;13.70;99.90;;;;;;4897895;29;20210;-69
2022/11/10 10:31:34;;;;;;;4.13;0.83;;;13.70;99.90;;;;;;4897778;29;20211;-70
2022/11/10 10:34:02;;;;;;;4.33;0.77;;;13.80;99.90;;;;;;4898156;29;20210;-70
2022/11/10 10:36:31;;;;;;;2.57;0.60;;;13.90;99.90;;;;;;4898337;29;20240;-70
2022/11/10 10:39:04;;;;;;;1.13;0.60;;;13.90;99.90;;;;;;4897959;29;20425;-70
2022/11/10 10:41:32;;;;;;;1.70;0.63;;;13.90;99.90;;;;;;4898005;29;20222;-70
2022/11/10 10:44:01;;;;;;;3.40;0.90;;;13.90;99.90;;;;;;4898011;29;20206;-70
2022/11/10 10:46:30;;;;;;;0.93;0.57;;;13.90;99.90;;;;;;4897941;29;20237;-70
2022/11/10 10:49:12;;;;;;;3.53;0.50;;;14.00;99.90;;;;;;4898140;29;20665;-70
2022/11/10 10:51:40;;;;;;;3.07;0.63;;;14.00;99.90;;;;;;4897926;29;20214;-70
2022/11/10 10:54:23;;;;;;;5.07;0.63;;;14.10;99.90;;;;;;4898350;29;20210;-71
2022/11/10 10:56:50;;;;;;;1.93;0.60;;;14.30;99.90;;;;;;4897823;29;20241;-71
2022/11/10 10:59:21;;;;;;;4.87;0.60;;;14.40;99.90;;;;;;4897641;29;20723;-69
2022/11/10 11:01:53;;;;;;;5.53;0.50;;;14.50;99.90;;;;;;4897708;29;20677;-70
2022/11/10 11:04:32;;;;;;;2.40;0.70;;;14.70;99.90;;;;;;4897816;29;20220;-70
2022/11/10 11:07:02;;;;;;;2.90;0.80;;;14.50;99.90;;;;;;4897839;29;20226;-70
2022/11/10 11:09:38;;;;;;;7.43;0.97;;;14.60;99.90;;;;;;4897974;29;20217;-70
2022/11/10 11:12:07;;;;;;;2.70;1.20;;;14.60;99.90;;;;;;4897732;29;20676;-70
2022/11/10 11:14:33;;;;;;;2.27;0.50;;;14.70;99.90;;;;;;4897493;29;20214;-70
2022/11/10 11:17:02;;;;;;;1.63;0.50;;;14.80;99.90;;;;;;4897410;29;20281;-67
2022/11/10 11:19:32;;;;;;;8.33;0.80;;;14.90;99.90;;;;;;4897421;29;20238;-70
2022/11/10 11:22:25;;;;;;;1.20;0.60;;;15.00;99.90;;;;;;4897778;29;20683;-70
2022/11/10 11:24:59;;;;;;;3.23;0.67;;;14.90;99.90;;;;;;4897546;29;20214;-70
2022/11/10 11:27:36;;;;;;;2.37;0.83;;;14.90;99.90;;;;;;4899972;29;20234;-69
2022/11/10 11:30:08;;;;;;;3.73;0.50;;;14.70;99.90;;;;;;4901685;29;20217;-70
2022/11/10 11:33:05;;;;;;;3.80;0.60;;;14.70;99.90;;;;;;4901440;29;20211;-70
2022/11/10 11:35:42;;;;;;;2.27;0.50;;;14.80;99.90;;;;;;4900765;29;20673;-70
2022/11/10 11:38:16;;;;;;;3.30;0.80;;;14.90;99.90;;;;;;4901190;29;20233;-68
2022/11/10 11:40:53;;;;;;;2.70;0.70;;;15.00;99.90;;;;;;4901182;29;20217;-68
2022/11/10 11:43:43;;;;;;;2.53;0.70;;;15.00;99.90;;;;;;4900632;29;20214;-67
2022/11/10 11:46:18;;;;;;;3.03;0.60;;;15.00;99.90;;;;;;4900232;29;20725;-69
2022/11/10 11:48:55;;;;;;;1.77;0.50;;;15.00;99.90;;;;;;4900416;29;20224;-69
2022/11/10 11:51:27;;;;;;;2.73;0.47;;;14.90;99.90;;;;;;4900676;29;20662;-70
2022/11/10 11:54:13;;;;;;;1.83;0.60;;;14.80;99.90;;;;;;4900739;29;20210;-69
2022/11/10 11:56:43;;;;;;;1.20;0.30;;;14.90;99.90;;;;;;4900219;29;20731;-70
2022/11/10 11:59:38;;;;;;;2.43;0.60;;;14.90;99.90;;;;;;4900535;29;20238;-69
2022/11/10 12:02:38;;;;;;;1.60;0.40;;;14.90;99.90;;;;;;4900435;29;20218;-70
2022/11/10 12:05:18;;;;;;;1.20;0.40;;;14.90;99.90;;;;;;4900670;29;20211;-69
2022/11/10 12:07:55;;;;;;;2.90;0.60;;;15.00;99.90;;;;;;4900644;29;20236;-69
2022/11/10 12:10:35;;;;;;;0.73;0.30;;;15.10;99.90;;;;;;4900800;29;20236;-70
2022/11/10 12:13:21;;;;;;;1.43;0.50;;;15.20;99.90;;;;;;4900277;29;20210;-69
2022/11/10 12:15:54;;;;;;;1.87;0.50;;;15.30;99.90;;;;;;4900534;29;20222;-69
2022/11/10 12:18:30;;;;;;;1.57;0.50;;;15.30;99.90;;;;;;4900003;29;20242;-69
2022/11/10 12:21:11;;;;;;;2.63;0.57;;;15.40;99.90;;;;;;4900103;29;20229;-70
2022/11/10 12:23:52;;;;;;;1.20;0.40;;;15.40;99.90;;;;;;4900578;29;20214;-70
2022/11/10 12:26:27;;;;;;;2.40;0.77;;;15.30;99.90;;;;;;4900418;29;20211;-69
2022/11/10 12:29:04;;;;;;;3.30;0.60;;;15.20;99.90;;;;;;4900540;29;20220;-69
2022/11/10 12:31:36;;;;;;;4.00;1.20;;;15.00;99.90;;;;;;4900193;29;20210;-69
2022/11/10 12:34:10;;;;;;;1.23;0.60;;;15.10;99.90;;;;;;4900261;29;20245;-69
2022/11/10 12:36:38;;;;;;;2.40;0.50;;;15.20;99.90;;;;;;4900007;29;20705;-69
2022/11/10 12:39:13;;;;;;;3.30;0.53;;;15.30;99.90;;;;;;4899214;29;20325;-69
2022/11/10 12:41:45;;;;;;;2.23;0.70;;;15.40;99.90;;;;;;4900230;29;20621;-70
2022/11/10 12:44:21;;;;;;;0.80;0.40;;;15.40;99.90;;;;;;4900372;29;20229;-71
2022/11/10 12:46:53;;;;;;;1.93;0.77;;;15.40;99.90;;;;;;4899659;29;20233;-71
2022/11/10 12:49:28;;;;;;;2.77;0.70;;;15.20;99.90;;;;;;4899736;29;20210;-70
2022/11/10 12:52:02;;;;;;;3.07;0.63;;;15.20;99.90;;;;;;4899622;29;20206;-71
2022/11/10 12:54:30;;;;;;;2.87;0.70;;;15.30;99.90;;;;;;4899768;29;20415;-70
2022/11/10 12:57:03;;;;;;;3.93;0.80;;;15.30;99.90;;;;;;4899501;29;20826;-70
2022/11/10 12:59:33;;;;;;;4.20;0.80;;;15.40;99.90;;;;;;4899974;29;20328;-71
2022/11/10 13:02:06;;;;;;;0.53;0.40;;;15.30;99.90;;;;;;4899374;29;20222;-70
2022/11/10 13:04:33;;;;;;;2.17;0.63;;;15.30;99.90;;;;;;4899532;29;20221;-71
2022/11/10 13:07:02;;;;;;;4.77;0.70;;;15.40;99.90;;;;;;4899224;29;20234;-69
2022/11/10 13:09:31;;;;;;;1.77;0.73;;;15.30;99.90;;;;;;4899256;29;20210;-69
2022/11/10 13:12:17;;;;;;;0.87;0.50;;;15.30;99.90;;;;;;4898900;29;20217;-69
2022/11/10 13:14:45;;;;;;;1.00;0.53;;;15.40;99.90;;;;;;4899611;29;20218;-70
2022/11/10 13:17:42;;;;;;;1.90;0.80;;;15.40;99.90;;;;;;4899132;29;20714;-70
2022/11/10 13:20:48;;;;;;;2.43;0.50;;;15.30;99.90;;;;;;4898829;29;20234;-70
2022/11/10 13:23:25;;;;;;;2.07;0.60;;;15.30;99.90;;;;;;4899533;29;20224;-70
2022/11/10 13:25:59;;;;;;;3.03;1.00;;;15.30;99.90;;;;;;4899439;29;20241;-70
2022/11/10 13:29:01;;;;;;;2.77;1.13;;;15.30;99.90;;;;;;4899123;29;20743;-70
2022/11/10 13:31:39;;;;;;;2.90;0.70;;;15.40;99.90;;;;;;4898615;29;20210;-71
2022/11/10 13:34:10;;;;;;;2.83;0.90;;;15.50;99.90;;;;;;4898802;29;20205;-70
2022/11/10 13:36:38;;;;;;;1.63;0.50;;;15.50;99.90;;;;;;4898362;29;20226;-70
2022/11/10 13:39:22;;;;;;;2.50;0.83;;;15.50;99.90;;;;;;4898164;29;20236;-71
2022/11/10 13:41:51;;;;;;;3.37;1.10;;;15.60;99.90;;;;;;4898482;29;20213;-70
2022/11/10 13:44:27;;;;;;;3.70;1.10;;;15.50;99.90;;;;;;4898445;29;20666;-71
2022/11/10 13:47:14;;;;;;;1.67;0.80;;;15.30;99.90;;;;;;4898457;29;20229;-71
2022/11/10 13:49:56;;;;;;;2.20;0.80;;;15.40;99.90;;;;;;4898527;29;20207;-70
2022/11/10 13:52:28;;;;;;;2.13;0.80;;;15.40;99.90;;;;;;4898753;29;20214;-70
2022/11/10 13:55:34;;;;;;;1.70;0.80;;;15.40;99.90;;;;;;4898596;29;20206;-70
2022/11/10 13:58:04;;;;;;;3.83;0.70;;;15.50;99.90;;;;;;4840282;29;20229;-70
2022/11/10 14:00:34;;;;;;;4.37;0.70;;;15.50;99.90;;;;;;4888918;29;20234;-70
2022/11/10 14:03:02;;;;;;;1.60;0.83;;;15.50;99.90;;;;;;4898319;29;20218;-69
2022/11/10 14:06:08;;;;;;;3.57;1.10;;;15.40;99.90;;;;;;4898476;29;20206;-69
2022/11/10 14:08:41;;;;;;;2.83;0.97;;;15.40;99.90;;;;;;4897576;29;20210;-70
2022/11/10 14:11:19;;;;;;;2.43;0.90;;;15.40;99.90;;;;;;4897785;29;20210;-69
2022/11/10 14:13:50;;;;;;;1.17;0.70;;;15.40;99.90;;;;;;4897957;29;20210;-70
2022/11/10 14:16:22;;;;;;;4.40;0.70;;;15.30;99.90;;;;;;4897892;29;20230;-70
2022/11/10 14:18:55;;;;;;;1.57;0.73;;;15.30;99.90;;;;;;4897818;29;20323;-69
2022/11/10 14:21:30;;;;;;;19.17;7.33;;;15.30;99.90;;;;;;4898180;29;20226;-69
2022/11/10 14:24:04;;;;;;;4.23;0.70;;;15.20;99.90;;;;;;4897559;29;20210;-69
2022/11/10 14:26:35;;;;;;;1.73;0.60;;;15.00;99.90;;;;;;4897659;29;20230;-69
2022/11/10 14:29:21;;;;;;;1.27;0.60;;;14.90;99.90;;;;;;4897784;29;20225;-70
2022/11/10 14:31:50;;;;;;;3.90;0.57;;;14.90;99.90;;;;;;4897547;29;20637;-69
2022/11/10 14:34:18;;;;;;;1.87;0.53;;;14.90;99.90;;;;;;4897248;29;20211;-69
2022/11/10 14:36:53;;;;;;;0.50;0.40;;;14.90;99.90;;;;;;4897249;29;20256;-69
2022/11/10 14:39:24;;;;;;;1.07;0.40;;;14.90;99.90;;;;;;4897416;29;20728;-69
2022/11/10 14:41:51;;;;;;;6.47;0.63;;;14.90;99.90;;;;;;4897816;29;20206;-69
2022/11/10 14:44:22;;;;;;;2.90;0.40;;;14.90;99.90;;;;;;4896558;29;20210;-69
2022/11/10 14:46:50;;;;;;;1.77;0.50;;;14.80;99.90;;;;;;4896378;29;20601;-69
2022/11/10 14:49:23;;;;;;;0.67;0.20;;;14.70;99.90;;;;;;4896314;29;20216;-69
2022/11/10 14:51:51;;;;;;;2.23;0.40;;;14.70;99.90;;;;;;4896746;29;20218;-69
2022/11/10 14:54:23;;;;;;;0.83;0.50;;;14.70;99.90;;;;;;4896850;29;20301;-69
2022/11/10 14:56:50;;;;;;;7.67;0.60;;;14.70;99.90;;;;;;4896720;29;20226;-70
2022/11/10 14:59:19;;;;;;;2.80;0.57;;;14.60;99.90;;;;;;4896920;29;20569;-70
2022/11/10 15:01:53;;;;;;;1.67;0.80;;;14.50;99.90;;;;;;4892687;29;20214;-69
2022/11/10 15:04:25;;;;;;;3.20;0.63;;;14.50;99.90;;;;;;4896098;29;20257;-69
2022/11/10 15:06:53;;;;;;;2.17;0.60;;;14.40;99.90;;;;;;4894057;29;20226;-70
2022/11/10 15:09:25;;;;;;;2.77;0.50;;;14.30;99.90;;;;;;4896189;29;20693;-69
2022/11/10 15:11:54;;;;;;;5.30;0.50;;;14.20;99.90;;;;;;4895355;29;20210;-69
2022/11/10 15:14:39;;;;;;;2.20;0.50;;;14.20;99.90;;;;;;4896657;29;20216;-70
2022/11/10 15:17:10;;;;;;;1.80;0.50;;;14.20;99.90;;;;;;4896906;29;20257;-70
2022/11/10 15:19:38;;;;;;;1.43;0.67;;;14.30;99.90;;;;;;4896518;29;20234;-70
2022/11/10 15:22:16;;;;;;;3.50;1.30;;;14.20;99.90;;;;;;4896809;29;20839;-69
2022/11/10 15:24:44;;;;;;;1.87;0.70;;;14.10;99.90;;;;;;4896643;29;20673;-70
2022/11/10 15:27:21;;;;;;;2.90;0.67;;;14.00;99.90;;;;;;4897061;29;20233;-70
2022/11/10 15:29:48;;;;;;;1.40;0.67;;;14.00;99.90;;;;;;4896296;29;20237;-69
2022/11/10 15:32:19;;;;;;;1.40;0.57;;;14.00;99.90;;;;;;4896082;29;20209;-67
2022/11/10 15:34:47;;;;;;;1.03;0.50;;;14.00;99.90;;;;;;4896749;29;20202;-71
2022/11/10 15:37:24;;;;;;;1.80;0.50;;;13.90;99.90;;;;;;4896855;29;20226;-70
2022/11/10 15:39:51;;;;;;;2.47;0.67;;;13.80;99.90;;;;;;4896547;29;20725;-70
2022/11/10 15:42:21;;;;;;;1.30;0.70;;;13.80;99.90;;;;;;4896838;29;20203;-70
2022/11/10 15:44:48;;;;;;;2.53;0.63;;;13.70;99.90;;;;;;4897117;29;20215;-69
2022/11/10 15:47:18;;;;;;;1.43;0.50;;;13.70;99.90;;;;;;4897347;29;20234;-71
2022/11/10 15:49:45;;;;;;;1.03;0.47;;;13.60;99.90;;;;;;4897457;29;20226;-69
2022/11/10 15:52:16;;;;;;;4.77;0.97;;;13.60;99.90;;;;;;4897604;29;20309;-70
2022/11/10 15:54:44;;;;;;;2.53;0.83;;;13.50;99.90;;;;;;4896651;29;20586;-70
2022/11/10 15:57:13;;;;;;;4.13;0.80;;;13.40;99.90;;;;;;4897188;29;20238;-71
2022/11/10 15:59:39;;;;;;;1.83;0.70;;;13.40;99.90;;;;;;4897074;29;20234;-70
2022/11/10 16:02:26;;;;;;;3.10;0.70;;;13.40;99.90;;;;;;4896905;29;20222;-69
2022/11/10 16:04:54;;;;;;;4.90;1.13;;;13.30;99.90;;;;;;4896841;29;20658;-70
2022/11/10 16:07:21;;;;;;;4.47;0.70;;;13.20;99.90;;;;;;4897489;29;20261;-70
2022/11/10 16:09:48;;;;;;;3.53;0.70;;;13.20;99.90;;;;;;4897578;29;20638;-69
2022/11/10 16:12:19;;;;;;;2.30;0.70;;;13.10;99.90;;;;;;4897939;29;20214;-68
2022/11/10 16:14:49;;;;;;;2.13;0.60;;;13.00;99.90;;;;;;4900765;29;20570;-71
2022/11/10 16:17:17;;;;;;;3.63;0.80;;;13.00;99.90;;;;;;4900582;29;20234;-71
2022/11/10 16:19:46;;;;;;;4.37;0.90;;;13.00;99.90;;;;;;4900476;29;20301;-71
2022/11/10 16:22:13;;;;;;;3.73;0.50;;;12.90;99.90;;;;;;4900474;29;20206;-70
2022/11/10 16:24:40;;;;;;;1.73;0.80;;;12.90;99.90;;;;;;4900226;29;20214;-71
2022/11/10 16:27:12;;;;;;;4.93;0.60;;;12.90;99.90;;;;;;4900113;29;20230;-71
2022/11/10 16:29:41;;;;;;;2.07;0.60;;;12.90;99.90;;;;;;4898249;29;20202;-72
2022/11/10 16:32:10;;;;;;;3.10;0.60;;;12.80;99.90;;;;;;4898841;29;20210;-73
2022/11/10 16:34:36;;;;;;;1.57;0.77;;;12.70;99.90;;;;;;4900236;29;20283;-72
2022/11/10 16:37:05;;;;;;;4.00;0.90;;;12.70;99.90;;;;;;4899921;29;20223;-72
2022/11/10 16:39:32;;;;;;;3.23;1.07;;;12.70;99.90;;;;;;4899703;29;20240;-73
2022/11/10 16:41:58;;;;;;;1.87;0.83;;;12.70;99.90;;;;;;4900037;29;20211;-72
2022/11/10 16:44:25;;;;;;;2.47;0.80;;;12.70;99.90;;;;;;4900197;29;20233;-73
2022/11/10 16:46:54;;;;;;;3.87;0.93;;;12.50;99.90;;;;;;4899669;29;20321;-72
2022/11/10 16:49:31;;;;;;;4.13;0.83;;;12.40;99.90;;;;;;4899584;29;20613;-72
2022/11/10 16:51:58;;;;;;;2.27;0.90;;;12.40;99.90;;;;;;4899905;29;20218;-72
2022/11/10 16:54:26;;;;;;;4.57;1.20;;;12.40;99.90;;;;;;4899720;29;20214;-72
2022/11/10 16:56:53;;;;;;;2.60;1.40;;;12.30;99.90;;;;;;4899743;29;20230;-72
2022/11/10 16:59:20;;;;;;;2.50;1.20;;;12.30;99.90;;;;;;4899486;29;20210;-72
2022/11/10 17:01:48;;;;;;;2.27;0.97;;;12.10;99.90;;;;;;4899656;29;20559;-73
2022/11/10 17:04:15;;;;;;;5.50;1.30;;;12.10;99.90;;;;;;4899703;29;20206;-71
2022/11/10 17:06:42;;;;;;;4.13;1.43;;;12.00;99.90;;;;;;4899607;29;20650;-72
2022/11/10 17:09:14;;;;;;;6.23;1.60;;;12.00;99.90;;;;;;4911443;29;20209;-71
2022/11/10 17:11:42;;;;;;;3.63;1.37;;;12.00;99.90;;;;;;4899692;29;20234;-73
2022/11/10 17:14:11;;;;;;;3.60;1.30;;;12.00;99.90;;;;;;4899483;29;20211;-72
2022/11/10 17:16:39;;;;;;;4.83;1.87;;;12.00;99.90;;;;;;4899356;29;20238;-72
2022/11/10 17:19:07;;;;;;;4.47;1.33;;;11.90;99.90;;;;;;4899446;29;20224;-73
2022/11/10 17:21:36;;;;;;;3.30;1.50;;;11.90;99.90;;;;;;4899203;29;20321;-72
2022/11/10 17:24:03;;;;;;;2.50;1.33;;;11.80;99.90;;;;;;4898478;29;20216;-73
2022/11/10 17:26:30;;;;;;;3.07;1.40;;;11.80;99.90;;;;;;4899269;29;20236;-72
2022/11/10 17:28:58;;;;;;;3.70;1.77;;;11.70;99.90;;;;;;4899030;29;20218;-73
2022/11/10 17:31:25;;;;;;;4.67;1.47;;;11.70;99.90;;;;;;4883761;29;20214;-73
2022/11/10 17:33:52;;;;;;;3.80;1.43;;;11.70;99.90;;;;;;4897821;29;20214;-72
2022/11/10 17:36:22;;;;;;;3.53;1.57;;;11.60;99.90;;;;;;4916665;29;20216;-73
2022/11/10 17:38:49;;;;;;;2.67;1.67;;;11.60;99.90;;;;;;4916576;29;20264;-73
2022/11/10 17:41:17;;;;;;;6.17;2.03;;;11.60;99.90;;;;;;4898820;29;20244;-74
2022/11/10 17:43:45;;;;;;;3.67;1.60;;;11.60;99.90;;;;;;4907581;29;20210;-72
2022/11/10 17:46:13;;;;;;;6.73;1.90;;;11.50;99.90;;;;;;4917055;29;20209;-73
2022/11/10 17:48:40;;;;;;;4.07;1.77;;;11.50;99.90;;;;;;4916619;29;20300;-73
2022/11/10 17:51:11;;;;;;;3.43;1.70;;;11.50;99.90;;;;;;4899856;29;20216;-72
2022/11/10 17:53:38;;;;;;;4.47;2.00;;;11.50;99.90;;;;;;4897930;29;20220;-74
2022/11/10 17:56:05;;;;;;;2.27;1.50;;;11.40;99.90;;;;;;4897127;29;20689;-74
2022/11/10 17:58:32;;;;;;;4.00;1.90;;;11.40;99.90;;;;;;4897734;29;20211;-73
2022/11/10 18:00:59;;;;;;;5.23;2.80;;;11.40;99.90;;;;;;4896041;29;20237;-72
2022/11/10 18:03:27;;;;;;;4.40;1.90;;;11.30;99.90;;;;;;4881096;29;20207;-72
2022/11/10 18:05:53;;;;;;;3.87;2.00;;;11.30;99.90;;;;;;4879037;29;20222;-72
2022/11/10 18:08:20;;;;;;;4.00;2.57;;;11.20;99.90;;;;;;4878794;29;20235;-72
2022/11/10 18:10:48;;;;;;;4.43;1.77;;;11.10;99.90;;;;;;4892242;29;20213;-73
2022/11/10 18:13:16;;;;;;;9.53;2.93;;;11.10;99.90;;;;;;4897618;29;20206;-71
2022/11/10 18:15:43;;;;;;;5.70;2.53;;;11.10;99.90;;;;;;4897203;29;20551;-73
2022/11/10 18:18:13;;;;;;;4.27;2.20;;;11.10;99.90;;;;;;4897165;29;20265;-73
2022/11/10 18:20:42;;;;;;;7.17;2.80;;;11.10;99.90;;;;;;4897029;29;20230;-72
2022/11/10 18:23:11;;;;;;;7.70;2.20;;;11.10;99.90;;;;;;4897234;29;20214;-72
2022/11/10 18:25:38;;;;;;;5.43;2.33;;;11.10;99.90;;;;;;4884710;29;20243;-70
2022/11/10 18:28:05;;;;;;;7.97;2.57;;;11.00;99.90;;;;;;4893497;29;20227;-72
2022/11/10 18:30:32;;;;;;;5.37;2.37;;;11.00;99.90;;;;;;4895175;29;20210;-72
2022/11/10 18:33:01;;;;;;;5.60;2.33;;;11.00;99.90;;;;;;4894401;29;20215;-71
2022/11/10 18:35:27;;;;;;;3.50;2.03;;;11.00;99.90;;;;;;4889397;29;20237;-70
2022/11/10 18:37:56;;;;;;;5.23;2.43;;;10.90;99.90;;;;;;4888208;29;20235;-70
2022/11/10 18:40:22;;;;;;;8.13;3.07;;;10.90;99.90;;;;;;4889376;29;20699;-70
2022/11/10 18:42:49;;;;;;;4.73;2.47;;;10.90;99.90;;;;;;4887548;29;20666;-70
2022/11/10 18:45:16;;;;;;;5.43;2.67;;;10.80;99.90;;;;;;4884230;29;20575;-70
2022/11/10 18:47:43;;;;;;;7.43;2.77;;;10.80;99.90;;;;;;4892635;29;20230;-70
2022/11/10 18:50:10;;;;;;;5.83;2.53;;;10.80;99.90;;;;;;4890116;29;20210;-71
2022/11/10 18:52:37;;;;;;;5.40;2.63;;;10.80;99.90;;;;;;4886716;29;20211;-70
2022/11/10 18:55:06;;;;;;;5.60;2.50;;;10.80;99.90;;;;;;4891446;29;20217;-69
2022/11/10 18:57:33;;;;;;;6.33;2.50;;;10.80;99.90;;;;;;4895004;29;20326;-70
2022/11/10 19:00:00;;;;;;;5.50;2.57;;;10.80;99.90;;;;;;4890490;29;20210;-70
2022/11/10 19:02:27;;;;;;;7.47;2.20;;;10.80;99.90;;;;;;4886753;29;20583;-70
2022/11/10 19:04:54;;;;;;;4.30;2.30;;;10.80;99.90;;;;;;4892296;29;20237;-73
2022/11/10 19:07:21;;;;;;;6.37;2.23;;;10.80;99.90;;;;;;4883441;29;20313;-71
2022/11/10 19:09:47;;;;;;;4.27;2.30;;;10.80;99.90;;;;;;4883190;29;20207;-72
2022/11/10 19:12:15;;;;;;;6.20;3.07;;;10.80;99.90;;;;;;4887492;29;20218;-73
2022/11/10 19:14:42;;;;;;;8.00;2.73;;;10.80;99.90;;;;;;4887614;29;20681;-72
2022/11/10 19:17:09;;;;;;;5.30;2.43;;;10.80;99.90;;;;;;4892192;29;20226;-72
2022/11/10 19:19:36;;;;;;;7.70;2.43;;;10.80;99.90;;;;;;4894632;29;20207;-73
2022/11/10 19:22:03;;;;;;;5.53;2.27;;;10.80;99.90;;;;;;4892969;29;20226;-72
2022/11/10 19:24:29;;;;;;;3.43;1.80;;;10.90;99.90;;;;;;4886881;29;20218;-73
2022/11/10 19:26:56;;;;;;;5.67;2.40;;;10.80;99.90;;;;;;4892505;29;20390;-72
2022/11/10 19:29:24;;;;;;;8.63;2.33;;;10.80;99.90;;;;;;4889267;29;20657;-70
2022/11/10 19:31:51;;;;;;;6.87;2.00;;;10.80;99.90;;;;;;4887111;29;20206;-70
2022/11/10 19:34:18;;;;;;;3.60;2.10;;;10.70;99.90;;;;;;4896055;29;20210;-72
2022/11/10 19:36:45;;;;;;;2.93;2.00;;;10.70;99.90;;;;;;4892373;29;20246;-71
2022/11/10 19:39:13;;;;;;;3.70;2.30;;;10.80;99.90;;;;;;4884546;29;20215;-70
2022/11/10 19:41:40;;;;;;;3.80;2.20;;;10.80;99.90;;;;;;4886178;29;20766;-71
2022/11/10 19:44:07;;;;;;;7.00;2.70;;;10.80;99.90;;;;;;4889799;29;20210;-70
2022/11/10 19:46:37;;;;;;;4.77;2.50;;;10.80;99.90;;;;;;4891751;29;20230;-69
2022/11/10 19:49:05;;;;;;;7.63;2.37;;;10.80;99.90;;;;;;4894883;29;20658;-70
2022/11/10 19:51:32;;;;;;;3.13;2.20;;;10.70;99.90;;;;;;4894524;29;20313;-74
2022/11/10 19:54:01;;;;;;;5.57;2.47;;;10.70;99.90;;;;;;4886400;29;20219;-70
2022/11/10 19:56:29;;;;;;;4.00;2.57;;;10.70;99.90;;;;;;4891419;29;20230;-69
2022/11/10 19:58:56;;;;;;;4.60;2.30;;;10.70;99.90;;;;;;4894044;29;20207;-69
2022/11/10 20:01:23;;;;;;;3.70;2.13;;;10.60;99.90;;;;;;4894843;29;20238;-70
2022/11/10 20:03:51;;;;;;;4.77;2.60;;;10.60;99.90;;;;;;4894119;29;20554;-70
2022/11/10 20:06:20;;;;;;;5.50;2.40;;;10.60;99.90;;;;;;4889887;29;20211;-73
2022/11/10 20:08:47;;;;;;;3.93;2.53;;;10.60;99.90;;;;;;4891956;29;20301;-73
2022/11/10 20:11:15;;;;;;;6.10;2.27;;;10.50;99.90;;;;;;4896980;29;20542;-70
2022/11/10 20:13:42;;;;;;;7.37;2.30;;;10.50;99.90;;;;;;4883338;29;20214;-70
2022/11/10 20:16:11;;;;;;;5.33;2.00;;;10.50;99.90;;;;;;4888684;29;20211;-70
2022/11/10 20:18:39;;;;;;;4.63;2.30;;;10.60;99.90;;;;;;4892801;29;20586;-70
2022/11/10 20:21:09;;;;;;;7.60;2.90;;;10.50;99.90;;;;;;4894905;29;20245;-69
2022/11/10 20:23:36;;;;;;;4.90;2.40;;;10.50;99.90;;;;;;4898824;29;20214;-70
2022/11/10 20:26:04;;;;;;;4.97;2.13;;;10.50;99.90;;;;;;4894947;29;20210;-69
2022/11/10 20:28:32;;;;;;;11.77;3.00;;;10.40;99.90;;;;;;4885533;29;20211;-69
2022/11/10 20:30:59;;;;;;;9.87;3.40;;;10.40;99.90;;;;;;4887156;29;20222;-70
2022/11/10 20:33:27;;;;;;;11.17;4.50;;;10.40;99.90;;;;;;4888803;29;20614;-70
2022/11/10 20:35:53;;;;;;;7.37;2.80;;;10.40;99.90;;;;;;4890029;29;20218;-70
2022/11/10 20:38:22;;;;;;;6.40;2.80;;;10.30;99.90;;;;;;4898192;29;20246;-70
2022/11/10 20:40:48;;;;;;;6.63;2.97;;;10.30;99.90;;;;;;4894007;29;20245;-69
2022/11/10 20:43:15;;;;;;;4.00;2.40;;;10.30;99.90;;;;;;4887156;29;20207;-69
2022/11/10 20:45:42;;;;;;;7.17;3.13;;;10.20;99.90;;;;;;4897118;29;20217;-70
2022/11/10 20:48:09;;;;;;;5.50;2.17;;;10.20;99.90;;;;;;4892045;29;20298;-71
2022/11/10 20:50:39;;;;;;;5.67;2.67;;;10.20;99.90;;;;;;4895526;29;20215;-71
2022/11/10 20:53:06;;;;;;;3.70;1.83;;;10.30;99.90;;;;;;4892831;29;20217;-69
2022/11/10 20:55:37;;;;;;;5.83;3.00;;;10.30;99.90;;;;;;4896573;29;20211;-70
2022/11/10 20:58:04;;;;;;;5.43;2.63;;;10.30;99.90;;;;;;4894018;29;20231;-69
2022/11/10 21:00:31;;;;;;;4.83;2.07;;;10.30;99.90;;;;;;4892387;29;20222;-70
2022/11/10 21:02:58;;;;;;;8.33;2.97;;;10.20;99.90;;;;;;4889685;29;20215;-71
2022/11/10 21:05:24;;;;;;;6.03;2.40;;;10.20;99.90;;;;;;4893643;29;20218;-72
2022/11/10 21:07:51;;;;;;;7.23;2.57;;;10.10;99.90;;;;;;4887349;29;20594;-69
2022/11/10 21:10:18;;;;;;;5.97;2.53;;;10.10;99.90;;;;;;4887888;29;20258;-70
2022/11/10 21:12:48;;;;;;;7.60;2.60;;;10.10;99.90;;;;;;4892455;29;20214;-70
2022/11/10 21:15:15;;;;;;;5.53;2.87;;;10.10;99.90;;;;;;4886741;29;20472;-70
2022/11/10 21:17:42;;;;;;;4.17;2.50;;;10.10;99.90;;;;;;4893123;29;20234;-70
2022/11/10 21:20:09;;;;;;;10.40;2.93;;;10.10;99.90;;;;;;4891932;29;20203;-69
2022/11/10 21:22:36;;;;;;;5.33;2.93;;;10.10;99.90;;;;;;4896401;29;20245;-70
2022/11/10 21:25:03;;;;;;;5.20;2.50;;;10.00;99.90;;;;;;4886834;29;20215;-70
2022/11/10 21:27:30;;;;;;;5.30;3.20;;;9.90;99.90;;;;;;4880365;29;20235;-69
2022/11/10 21:29:58;;;;;;;6.73;2.73;;;9.90;99.90;;;;;;4880396;29;20216;-73
2022/11/10 21:32:25;;;;;;;6.43;2.70;;;9.90;99.90;;;;;;4880607;29;20215;-69
2022/11/10 21:34:52;;;;;;;5.07;2.73;;;9.90;99.90;;;;;;4880734;29;20217;-70
2022/11/10 21:37:19;;;;;;;7.13;2.80;;;9.80;99.90;;;;;;4880455;29;20235;-69
2022/11/10 21:39:45;;;;;;;5.80;3.10;;;9.80;99.90;;;;;;4880243;29;20215;-69
2022/11/10 21:42:12;;;;;;;6.17;2.80;;;9.80;99.90;;;;;;4880416;29;20235;-69
2022/11/10 21:44:39;;;;;;;4.20;2.63;;;9.80;99.90;;;;;;4880505;29;20207;-70
2022/11/10 21:47:08;;;;;;;4.80;3.33;;;9.80;99.90;;;;;;4879920;29;20334;-71
2022/11/10 21:49:35;;;;;;;5.73;2.73;;;9.70;99.90;;;;;;4880176;29;20214;-69
2022/11/10 21:52:02;;;;;;;5.67;2.70;;;9.70;99.90;;;;;;4880204;29;20215;-70
2022/11/10 21:54:28;;;;;;;5.20;2.70;;;9.70;99.90;;;;;;4880100;29;20221;-70
2022/11/10 21:56:55;;;;;;;5.20;2.90;;;9.80;99.90;;;;;;4880118;29;20231;-70
2022/11/10 21:59:22;;;;;;;11.03;3.00;;;9.80;99.90;;;;;;4880273;29;20215;-74
2022/11/10 22:01:49;;;;;;;9.57;3.10;;;9.70;99.90;;;;;;4879505;29;20242;-70
2022/11/10 22:04:17;;;;;;;3.47;2.30;;;9.80;99.90;;;;;;4879882;29;20217;-70
2022/11/10 22:20:26;;;;;;;5.10;2.80;;;9.60;99.90;;;;;;4879762;29;20619;-70